Adana Incirlik AFB, Turkey

5:40 AM +03 on May 28, 2018 (GMT +0300)
Incirlik Air Base

Weather History for LTAG - December, 2013

Change the Weather History Date:

Monday, December 23, 2013

  Actual Average Record
Temperature  
Mean Temperature 48 °F -  
Max Temperature 66 °F 60 °F 67 °F (2015)
Min Temperature 31 °F 43 °F 30 °F (2002)
Degree Days  
Heating Degree Days 16    
Moisture  
Dew Point 18 °F    
Average Humidity 38    
Maximum Humidity 60    
Minimum Humidity 5    
Precipitation  
Precipitation 0.00 in - - ()
Sea Level Pressure  
Sea Level Pressure 30.31 in    
Wind  
Wind Speed 5 mph ()    
Max Wind Speed 10 mph    
Max Gust Speed -    
Visibility 6.0 miles    
Events      
Averages and records for this station are not official NWS values.
T = Trace of Precipitation, MM = Missing Value Source: Averaged Metar Reports

Daily Weather History Graph

Daily Weather History Graph

Search for Another Location

Airport or City:

Astronomy

Dec. 23, 2013 Rise Set
Actual Time 6:48 AM EET 4:26 PM EET
Civil Twilight 6:19 AM EET 4:55 PM EET
Nautical Twilight 5:47 AM EET 5:27 PM EET
Astronomical Twilight 5:15 AM EET 5:59 PM EET
Moon 10:08 PM EET (12/23) 10:11 AM EET (12/23)
Length of Visible Light 10h 35m
Length of Day
9h 37m
Waning Gibbous, 71% of the Moon is Illuminated
Dec 23
Waning Gibbous
Dec 25
Last Quarter
Jan 1
New
Jan 8
First Quarter
Jan 16
Full

Hourly Weather History & Observations

Time (EET) Temp. Windchill Dew Point Humidity Pressure Visibility Wind Dir Wind Speed Gust Speed Precip Events Conditions
12:20 AM 37.4 °F 33.8 °F 19.4 °F 48% 30.30 in - NE 4.6 mph - N/A   Clear
12:50 AM 33.8 °F 25.8 °F 21.2 °F 60% 30.30 in - NE 10.4 mph - N/A   Clear
1:20 AM 33.8 °F 28.6 °F 21.2 °F 60% 30.30 in - NNE 5.8 mph - N/A   Clear
1:50 AM 33.8 °F 27.7 °F 21.2 °F 60% 30.30 in - NE 6.9 mph - N/A   Clear
2:00 AM 34 °F - 22 °F 48% 30.32 in 6 mi NE 6.9 mph - -  
2:20 AM 33.8 °F 27.7 °F 21.2 °F 60% 30.30 in - NE 6.9 mph - N/A   Clear
2:50 AM 33.8 °F 27.7 °F 19.4 °F 56% 30.30 in - NNE 6.9 mph - N/A   Clear
3:20 AM 35.6 °F 32.8 °F 19.4 °F 52% 30.30 in - North 3.5 mph - N/A   Clear
3:50 AM 32.0 °F 28.7 °F 19.4 °F 60% 30.27 in - North 3.5 mph - N/A   Clear
4:20 AM 35.6 °F - 19.4 °F 52% 30.30 in - NNW 2.3 mph - N/A   Clear
4:50 AM 35.6 °F 32.8 °F 17.6 °F 48% 30.30 in - NE 3.5 mph - N/A   Clear
5:00 AM 36 °F - 18 °F 35% 30.30 in 6 mi NE 3.5 mph - -  
5:20 AM 33.8 °F - 17.6 °F 52% 30.30 in - North 2.3 mph - N/A   Clear
5:50 AM 35.6 °F 32.8 °F 19.4 °F 52% 30.30 in - NNW 3.5 mph - N/A   Clear
6:20 AM 32.0 °F 27.5 °F 17.6 °F 55% 30.30 in - ENE 4.6 mph - N/A   Clear
6:50 AM 32.0 °F 25.6 °F 19.4 °F 60% 30.30 in - NE 6.9 mph - N/A   Clear
7:20 AM 32.0 °F - 19.4 °F 60% 30.33 in - NNE 2.3 mph - N/A   Clear
7:50 AM 35.6 °F 32.8 °F 23.0 °F 60% 30.33 in - NNE 3.5 mph - N/A   Clear
8:00 AM 35 °F - 23 °F 50% 30.34 in 6 mi NNE 3.5 mph - -  
8:20 AM 37.4 °F 32.8 °F 23.0 °F 56% 30.33 in - NNE 5.8 mph - N/A   Clear
8:50 AM 39.2 °F 35.0 °F 23.0 °F 52% 30.33 in - NNE 5.8 mph - N/A   Clear
9:20 AM 50.0 °F - 23.0 °F 35% 30.33 in - NW 2.3 mph - N/A   Clear
9:50 AM 57.2 °F - 17.6 °F 21% 30.33 in - NW 2.3 mph - N/A   Clear
10:20 AM 59.0 °F - 15.8 °F 19% 30.33 in - North 2.3 mph - N/A   Clear
10:50 AM 62.6 °F - 14.0 °F 15% 30.33 in - NNW 2.3 mph - N/A   Clear
11:00 AM 62 °F - 14 °F 7% 30.33 in 6 mi NNW 2.3 mph - -  
11:20 AM 64.4 °F - 21.2 °F 19% 30.30 in - WSW 3.5 mph - N/A   Clear
11:50 AM 64.4 °F - 19.4 °F 18% 30.30 in - WSW 2.3 mph - N/A   Clear
12:20 PM 66.2 °F - 17.6 °F 15% 30.30 in - WSW 2.3 mph - N/A   Clear
12:50 PM 66.2 °F - 12.2 °F 12% 30.30 in - ENE 2.3 mph - N/A   Clear
1:20 PM 66.2 °F - 12.2 °F 12% 30.27 in - WSW 2.3 mph - N/A   Clear
1:50 PM 66.2 °F - 10.4 °F 11% 30.27 in - West 4.6 mph - N/A   Clear
2:00 PM 66 °F - 11 °F 5% 30.30 in 6 mi West 4.6 mph - -  
2:20 PM 66.2 °F - 10.4 °F 11% 30.27 in - NW 4.6 mph - N/A   Clear
2:50 PM 66.2 °F - 12.2 °F 12% 30.30 in - West 4.6 mph - N/A   Clear
3:20 PM 64.4 °F - 14.0 °F 14% 30.30 in - WSW 3.5 mph - N/A   Clear
3:50 PM 62.6 °F - 15.8 °F 16% 30.30 in - West 2.3 mph - N/A   Clear
4:20 PM 60.8 °F - 15.8 °F 17% 30.30 in - SW 2.3 mph - N/A   Clear
4:50 PM 57.2 °F - 17.6 °F 21% 30.30 in - SW 2.3 mph - N/A   Clear
5:00 PM 57 °F - 18 °F 11% 30.32 in 6 mi SW 2.3 mph - -  
5:20 PM 46.4 °F 43.5 °F 19.4 °F 34% 30.30 in - NE 5.8 mph - N/A   Clear
5:50 PM 44.6 °F 40.7 °F 21.2 °F 39% 30.33 in - NE 6.9 mph - N/A   Clear
6:20 PM 42.8 °F 38.0 °F 19.4 °F 39% 30.33 in - NE 8.1 mph - N/A   Clear
6:50 PM 41.0 °F 35.2 °F 19.4 °F 42% 30.33 in - NE 9.2 mph - N/A   Clear
7:20 PM 39.2 °F 33.6 °F 19.4 °F 45% 30.33 in - NE 8.1 mph - N/A   Clear
7:50 PM 37.4 °F 31.4 °F 19.4 °F 48% 30.33 in - NNE 8.1 mph - N/A   Clear
8:00 PM 37 °F - 19 °F 34% 30.35 in 6 mi NNE 8.1 mph - -  
8:20 PM 37.4 °F 32.1 °F 19.4 °F 48% 30.33 in - NE 6.9 mph - N/A   Clear
8:50 PM 35.6 °F 29.2 °F 19.4 °F 52% 30.33 in - NE 8.1 mph - N/A   Clear
9:20 PM 35.6 °F 29.9 °F 19.4 °F 52% 30.33 in - NNE 6.9 mph - N/A   Clear
9:50 PM 35.6 °F 29.9 °F 19.4 °F 52% 30.33 in - NE 6.9 mph - N/A   Clear
10:20 PM 35.6 °F 32.8 °F 17.6 °F 48% 30.36 in - NNE 3.5 mph - N/A   Clear
10:50 PM 35.6 °F 32.8 °F 17.6 °F 48% 30.36 in - North 3.5 mph - N/A   Clear
11:00 PM 36 °F - 18 °F 33% 30.36 in 6 mi North 3.5 mph - -  
11:20 PM 37.4 °F - 17.6 °F 45% 30.33 in - WNW 2.3 mph - N/A   Clear
11:50 PM 39.2 °F 37.0 °F 17.6 °F 42% 30.33 in - North 3.5 mph - N/A   Clear